createdAt,value
2017-08-10T00:00:12.814Z,16.2
2017-08-10T00:01:12.393Z,16
2017-08-10T00:02:11.732Z,16
2017-08-10T00:03:10.452Z,16
2017-08-10T00:04:10.043Z,15.9
2017-08-10T00:05:09.758Z,15.8
2017-08-10T00:06:08.834Z,15.8
2017-08-10T00:07:08.531Z,15.8
2017-08-10T00:08:07.607Z,15.9
2017-08-10T00:09:07.081Z,16
2017-08-10T00:10:06.206Z,16
2017-08-10T00:11:05.286Z,16
2017-08-10T00:12:04.867Z,15.9
2017-08-10T00:13:04.448Z,16.1
2017-08-10T00:14:03.665Z,16
2017-08-10T00:15:02.881Z,16
2017-08-10T00:16:02.079Z,16
2017-08-10T00:17:01.540Z,16
2017-08-10T00:18:00.746Z,16
2017-08-10T00:18:59.952Z,16
2017-08-10T00:19:59.659Z,16
2017-08-10T00:20:58.846Z,16.1
2017-08-10T00:21:58.033Z,16.1
2017-08-10T00:22:28.414Z,16.1
2017-08-10T00:23:56.676Z,16.3
2017-08-10T00:24:55.879Z,16.3
2017-08-10T00:25:55.085Z,16.1
2017-08-10T00:26:54.657Z,16.1
2017-08-10T00:27:53.626Z,16
2017-08-10T00:28:53.225Z,15.9
2017-08-10T00:29:52.437Z,16
2017-08-10T00:30:51.519Z,16
2017-08-10T00:31:51.103Z,16.1
2017-08-10T00:32:50.682Z,16
2017-08-10T00:33:21.089Z,16
2017-08-10T00:34:48.972Z,16
2017-08-10T00:36:47.460Z,16
2017-08-10T00:37:46.935Z,15.8
2017-08-10T00:38:46.011Z,15.8
2017-08-10T00:39:45.723Z,15.8
2017-08-10T00:40:44.799Z,15.6
2017-08-10T00:41:43.879Z,15.6
2017-08-10T00:42:43.240Z,15.6
2017-08-10T00:43:42.691Z,15.6
2017-08-10T00:44:42.291Z,15.7
2017-08-10T00:45:41.505Z,15.8
2017-08-10T00:46:40.739Z,15.6
2017-08-10T00:47:39.919Z,15.5
2017-08-10T00:48:38.996Z,15.5
2017-08-10T00:49:38.702Z,15.7
2017-08-10T00:50:37.904Z,15.7
2017-08-10T00:51:36.977Z,15.7
2017-08-10T00:52:36.429Z,15.7
2017-08-10T00:53:35.624Z,15.6
2017-08-10T00:54:35.198Z,15.5
2017-08-10T00:55:34.386Z,15.4
2017-08-10T00:56:33.467Z,15.5
2017-08-10T00:57:32.736Z,15.5
2017-08-10T00:58:32.451Z,15.4
2017-08-10T01:00:31.050Z,15.3
2017-08-10T01:01:30.246Z,15.4
2017-08-10T01:02:29.326Z,15.3
2017-08-10T01:03:28.514Z,15.3
2017-08-10T01:04:27.989Z,15.3
2017-08-10T01:05:26.836Z,15.3
2017-08-10T01:06:26.530Z,15.2
2017-08-10T01:07:25.722Z,15.5
2017-08-10T01:08:24.910Z,15.3
2017-08-10T01:09:24.608Z,15.3
2017-08-10T01:10:23.810Z,15.4
2017-08-10T01:11:22.892Z,15.3
2017-08-10T01:11:53.292Z,15.3
2017-08-10T01:12:23.684Z,15.2
2017-08-10T01:12:54.069Z,15.2
2017-08-10T01:13:24.571Z,15.1
2017-08-10T01:13:54.839Z,15.1
2017-08-10T01:14:25.361Z,15.1
2017-08-10T01:14:55.637Z,15.1
2017-08-10T01:15:26.149Z,15.1
2017-08-10T01:15:56.544Z,15.1
2017-08-10T01:18:18.160Z,15
2017-08-10T01:19:17.365Z,15.1
2017-08-10T01:20:16.428Z,15.1
2017-08-10T01:21:16.130Z,15
2017-08-10T01:22:15.209Z,15
2017-08-10T01:23:14.403Z,15
2017-08-10T01:24:13.466Z,15.1
2017-08-10T01:25:13.143Z,15
2017-08-10T01:26:12.090Z,15.1
2017-08-10T01:27:11.428Z,15
2017-08-10T01:28:10.630Z,15
2017-08-10T01:29:10.209Z,15.1
2017-08-10T01:31:08.660Z,15
2017-08-10T01:32:08.112Z,14.9
2017-08-10T01:33:07.336Z,15
2017-08-10T01:34:06.524Z,15
2017-08-10T01:36:05.121Z,15
2017-08-10T01:37:04.065Z,15
2017-08-10T01:38:03.639Z,15
2017-08-10T01:39:02.721Z,15
2017-08-10T01:40:02.317Z,15
2017-08-10T01:41:01.159Z,14.9
2017-08-10T01:42:00.729Z,15
2017-08-10T01:42:59.957Z,15
2017-08-10T01:43:59.538Z,15
2017-08-10T01:44:29.921Z,15
2017-08-10T01:45:00.433Z,15
2017-08-10T01:45:58.130Z,15
2017-08-10T01:46:57.223Z,15.1
2017-08-10T01:47:56.287Z,15.1
2017-08-10T01:48:55.629Z,15.1
2017-08-10T01:49:55.086Z,15
2017-08-10T01:50:54.555Z,15.1
2017-08-10T01:51:53.756Z,15.1
2017-08-10T01:53:52.224Z,15.2
2017-08-10T01:54:51.420Z,15.1
2017-08-10T01:55:50.615Z,15
2017-08-10T01:56:50.211Z,15.1
2017-08-10T01:57:49.396Z,15
2017-08-10T01:58:48.586Z,15
2017-08-10T01:59:47.671Z,15.1
2017-08-10T02:00:46.892Z,15.1
2017-08-10T02:01:46.583Z,15
2017-08-10T02:02:45.666Z,15.1
2017-08-10T02:03:44.864Z,15
2017-08-10T02:04:44.055Z,15.1
2017-08-10T02:05:14.568Z,15.1
2017-08-10T02:05:44.862Z,15.1
2017-08-10T02:06:42.938Z,15.1
2017-08-10T02:07:42.008Z,15.1
2017-08-10T02:08:41.094Z,15.2
2017-08-10T02:09:40.791Z,15.2
2017-08-10T02:10:11.299Z,15.2
2017-08-10T02:10:41.571Z,15.2
2017-08-10T02:11:39.246Z,15.2
2017-08-10T02:12:38.313Z,15.2
2017-08-10T02:13:37.495Z,15.2
2017-08-10T02:14:37.091Z,15.2
2017-08-10T02:15:36.279Z,15.3
2017-08-10T02:16:35.475Z,15.2
2017-08-10T02:17:34.680Z,15.2
2017-08-10T02:18:33.758Z,15.1
2017-08-10T02:19:33.350Z,15.3
2017-08-10T02:20:03.623Z,15.3
2017-08-10T02:20:34.003Z,15.3
2017-08-10T02:21:04.517Z,15.3
2017-08-10T02:21:35.025Z,15.2
2017-08-10T02:22:31.078Z,15.1
2017-08-10T02:23:59.700Z,15.1
2017-08-10T02:24:01.888Z,15.1
2017-08-10T02:25:29.142Z,15.2
2017-08-10T02:26:28.345Z,15.1
2017-08-10T02:27:27.526Z,15.1
2017-08-10T02:28:26.588Z,15.2
2017-08-10T02:29:26.293Z,15.2
2017-08-10T02:30:25.244Z,15.3
2017-08-10T02:31:24.821Z,15.2
2017-08-10T02:32:24.007Z,15.3
2017-08-10T02:33:23.191Z,15.2
2017-08-10T02:34:22.374Z,15.2
2017-08-10T02:35:21.438Z,15.2
2017-08-10T02:36:21.165Z,15.2
2017-08-10T02:37:20.349Z,15.1
2017-08-10T02:38:19.529Z,15.1
2017-08-10T02:39:18.709Z,15.2
2017-08-10T02:40:17.896Z,15.1
2017-08-10T02:41:17.471Z,15.2
2017-08-10T02:42:16.538Z,15.3
2017-08-10T02:43:15.740Z,15.3
2017-08-10T02:44:15.193Z,15.2
2017-08-10T02:45:14.381Z,15.2
2017-08-10T02:46:13.467Z,15.1
2017-08-10T02:47:13.040Z,15.1
2017-08-10T02:48:12.100Z,15.2
2017-08-10T02:49:11.679Z,15.3
2017-08-10T02:50:10.855Z,15.3
2017-08-10T02:51:09.809Z,15.2
2017-08-10T02:52:09.392Z,15.2
2017-08-10T02:53:08.567Z,15.1
2017-08-10T02:54:08.128Z,15.1
2017-08-10T02:55:07.328Z,15.1
2017-08-10T02:56:06.509Z,15.1
2017-08-10T02:57:05.585Z,15.2
2017-08-10T02:58:05.271Z,15.2
2017-08-10T02:59:04.225Z,15.2
2017-08-10T02:59:34.735Z,15.2
2017-08-10T03:00:05.243Z,15.3
2017-08-10T03:00:35.737Z,15.3
2017-08-10T03:01:06.115Z,15.2
2017-08-10T03:01:36.615Z,15.2
2017-08-10T03:02:07.104Z,15.3
2017-08-10T03:02:37.485Z,15.3
2017-08-10T03:03:07.982Z,15.2
2017-08-10T03:03:38.494Z,15.2
2017-08-10T03:04:59.806Z,15.2
2017-08-10T03:06:58.364Z,15.3
2017-08-10T03:07:57.802Z,15.2
2017-08-10T03:08:56.874Z,15.2
2017-08-10T03:09:56.571Z,15.2
2017-08-10T03:10:55.752Z,15.2
2017-08-10T03:11:54.955Z,15.2
2017-08-10T03:12:54.143Z,15.2
2017-08-10T03:13:24.528Z,15.2
2017-08-10T03:14:52.786Z,15.2
2017-08-10T03:15:51.723Z,15.2
2017-08-10T03:16:51.170Z,15.2
2017-08-10T03:17:50.360Z,15.3
2017-08-10T03:19:48.920Z,15.3
2017-08-10T03:20:48.485Z,15.3
2017-08-10T03:21:47.429Z,15.3
2017-08-10T03:22:46.988Z,15.3
2017-08-10T03:23:45.949Z,15.3
2017-08-10T03:24:45.528Z,15.3
2017-08-10T03:25:44.589Z,15.4
2017-08-10T03:26:44.156Z,15.3
2017-08-10T03:27:43.102Z,15.4
2017-08-10T03:28:42.789Z,15.4
2017-08-10T03:29:41.980Z,15.4
2017-08-10T03:30:41.209Z,15.3
2017-08-10T03:31:40.415Z,15.3
2017-08-10T03:32:10.929Z,15.3
2017-08-10T03:33:38.801Z,15.5
2017-08-10T03:34:38.476Z,15.4
2017-08-10T03:35:37.534Z,15.4
2017-08-10T03:36:36.706Z,15.5
2017-08-10T03:37:35.775Z,15.4
2017-08-10T03:38:35.232Z,15.5
2017-08-10T03:39:34.302Z,15.5
2017-08-10T03:40:33.646Z,15.5
2017-08-10T03:41:33.225Z,15.5
2017-08-10T03:42:32.404Z,15.5
2017-08-10T03:43:31.581Z,15.6
2017-08-10T03:44:31.272Z,15.5
2017-08-10T03:45:30.448Z,15.5
2017-08-10T03:46:29.625Z,15.5
2017-08-10T03:47:28.819Z,15.6
2017-08-10T03:48:28.002Z,15.5
2017-08-10T03:49:27.566Z,15.6
2017-08-10T03:50:26.624Z,15.5
2017-08-10T03:51:25.686Z,15.6
2017-08-10T03:52:25.378Z,15.6
2017-08-10T03:53:24.557Z,15.5
2017-08-10T03:53:54.944Z,15.5
2017-08-10T03:54:25.436Z,15.6
2017-08-10T03:55:23.123Z,15.5
2017-08-10T03:56:22.560Z,15.5
2017-08-10T03:57:21.734Z,15.5
2017-08-10T03:58:21.196Z,15.5
2017-08-10T03:59:20.258Z,15.6
2017-08-10T04:00:19.325Z,15.6
2017-08-10T04:01:18.900Z,15.7
2017-08-10T04:02:18.080Z,15.7
2017-08-10T04:03:17.259Z,15.6
2017-08-10T04:04:16.830Z,15.8
2017-08-10T04:05:15.678Z,15.7
2017-08-10T04:06:15.355Z,15.7
2017-08-10T04:07:14.170Z,15.8
2017-08-10T04:08:13.607Z,15.8
2017-08-10T04:09:12.787Z,15.8
2017-08-10T04:10:12.359Z,15.8
2017-08-10T04:11:11.424Z,15.8
2017-08-10T04:12:10.878Z,15.8
2017-08-10T04:13:09.826Z,15.9
2017-08-10T04:14:09.264Z,16
2017-08-10T04:15:08.731Z,16
2017-08-10T04:16:07.811Z,16
2017-08-10T04:17:06.943Z,16
2017-08-10T04:18:06.625Z,16
2017-08-10T04:19:05.463Z,16
2017-08-10T04:20:04.812Z,16
2017-08-10T04:21:04.498Z,16
2017-08-10T04:22:03.322Z,15.8
2017-08-10T04:23:02.881Z,15.7
2017-08-10T04:24:02.067Z,15.6
2017-08-10T04:25:01.131Z,15.7
2017-08-10T04:26:00.701Z,15.6
2017-08-10T04:26:59.647Z,15.5
2017-08-10T04:27:59.199Z,15.5
2017-08-10T04:28:58.267Z,15.5
2017-08-10T04:29:57.977Z,15.5
2017-08-10T04:30:56.800Z,15.4
2017-08-10T04:31:56.369Z,15.4
2017-08-10T04:32:55.552Z,15.4
2017-08-10T04:33:54.728Z,15.4
2017-08-10T04:34:53.907Z,15.5
2017-08-10T04:35:53.585Z,15.3
2017-08-10T04:36:52.789Z,15.3
2017-08-10T04:37:51.846Z,15.3
2017-08-10T04:38:51.302Z,15.3
2017-08-10T04:40:49.876Z,15.4
2017-08-10T04:41:48.717Z,15.4
2017-08-10T04:42:48.410Z,15.3
2017-08-10T04:43:47.482Z,15.2
2017-08-10T04:44:46.659Z,15.1
2017-08-10T04:45:46.124Z,15.1
2017-08-10T04:46:44.946Z,15.1
2017-08-10T04:47:44.508Z,15.1
2017-08-10T04:48:14.920Z,15.1
2017-08-10T04:48:45.417Z,15.1
2017-08-10T04:49:15.918Z,15.1
2017-08-10T04:49:46.403Z,15.2
2017-08-10T04:50:16.776Z,15.2
2017-08-10T04:51:41.645Z,15.2
2017-08-10T04:52:40.833Z,15.3
2017-08-10T04:53:40.285Z,15.3
2017-08-10T04:54:39.470Z,15.2
2017-08-10T04:55:38.657Z,15
2017-08-10T04:56:38.340Z,15
2017-08-10T04:57:37.526Z,15
2017-08-10T04:58:36.597Z,15
2017-08-10T04:59:35.779Z,15
2017-08-10T05:00:35.248Z,15
2017-08-10T05:01:34.314Z,14.9
2017-08-10T05:02:33.265Z,14.8
2017-08-10T05:03:32.833Z,14.8
2017-08-10T05:04:32.032Z,14.8
2017-08-10T05:05:31.715Z,14.9
2017-08-10T05:06:30.890Z,14.9
2017-08-10T05:07:30.082Z,15
2017-08-10T05:08:00.595Z,15
2017-08-10T05:08:31.094Z,15
2017-08-10T05:09:01.355Z,15
2017-08-10T05:10:27.586Z,15.1
2017-08-10T05:11:27.152Z,15
2017-08-10T05:12:26.344Z,15
2017-08-10T05:13:25.517Z,14.9
2017-08-10T05:14:24.708Z,14.8
2017-08-10T05:15:24.399Z,14.8
2017-08-10T05:16:23.469Z,14.8
2017-08-10T05:17:22.522Z,14.8
2017-08-10T05:18:22.088Z,14.8
2017-08-10T05:18:52.339Z,14.8
2017-08-10T05:19:22.480Z,14.9
2017-08-10T05:19:52.840Z,14.9
2017-08-10T05:20:23.204Z,14.8
2017-08-10T05:20:53.593Z,14.8
2017-08-10T05:21:23.971Z,14.8
2017-08-10T05:21:54.466Z,14.8
2017-08-10T05:23:18.312Z,14.8
2017-08-10T05:24:17.378Z,14.8
2017-08-10T05:25:16.939Z,14.8
2017-08-10T05:26:16.137Z,14.9
2017-08-10T05:27:15.323Z,14.9
2017-08-10T05:28:14.388Z,14.8
2017-08-10T05:29:14.070Z,14.8
2017-08-10T05:30:13.130Z,14.8
2017-08-10T05:31:12.319Z,14.8
2017-08-10T05:32:11.496Z,14.9
2017-08-10T05:33:11.090Z,14.9
2017-08-10T05:34:10.041Z,14.9
2017-08-10T05:35:09.110Z,14.9
2017-08-10T05:36:08.332Z,15
2017-08-10T05:37:08.002Z,14.9
2017-08-10T05:38:07.069Z,14.9
2017-08-10T05:39:06.754Z,15
2017-08-10T05:40:05.962Z,15
2017-08-10T05:41:04.901Z,15
2017-08-10T05:42:03.965Z,15
2017-08-10T05:43:03.524Z,15.1
2017-08-10T05:45:02.111Z,15.1
2017-08-10T05:46:01.050Z,15
2017-08-10T05:47:00.498Z,15
2017-08-10T05:47:59.680Z,15
2017-08-10T05:48:59.259Z,15
2017-08-10T05:49:58.323Z,15
2017-08-10T05:50:57.217Z,15
2017-08-10T05:51:56.667Z,15
2017-08-10T05:52:56.107Z,15
2017-08-10T05:53:55.295Z,15
2017-08-10T05:54:54.355Z,15
2017-08-10T05:55:54.051Z,14.8
2017-08-10T05:56:53.142Z,14.8
2017-08-10T05:57:52.339Z,14.8
2017-08-10T05:58:51.395Z,14.8
2017-08-10T05:59:50.844Z,14.7
2017-08-10T06:00:21.624Z,14.7
2017-08-10T06:00:52.003Z,14.7
2017-08-10T06:01:22.382Z,14.7
2017-08-10T06:01:52.755Z,14.8
2017-08-10T06:02:48.797Z,14.8
2017-08-10T06:03:47.866Z,14.9
2017-08-10T06:04:47.045Z,15
2017-08-10T06:05:46.743Z,14.9
2017-08-10T06:06:45.806Z,14.9
2017-08-10T06:07:44.743Z,15
2017-08-10T06:08:44.208Z,15
2017-08-10T06:09:43.784Z,14.9
2017-08-10T06:11:42.242Z,15
2017-08-10T06:12:41.324Z,15
2017-08-10T06:13:40.502Z,15
2017-08-10T06:14:40.073Z,15
2017-08-10T06:15:39.245Z,15
2017-08-10T06:16:09.632Z,15
2017-08-10T06:16:40.011Z,15
2017-08-10T06:17:37.692Z,15.1
2017-08-10T06:18:36.756Z,15.1
2017-08-10T06:19:36.369Z,15.1
2017-08-10T06:20:35.556Z,15.1
2017-08-10T06:21:34.624Z,15.2
2017-08-10T06:22:34.072Z,15.2
2017-08-10T06:23:33.260Z,15.3
2017-08-10T06:24:32.437Z,15.3
2017-08-10T06:25:31.917Z,15.2
2017-08-10T06:26:31.105Z,15.2
2017-08-10T06:27:30.159Z,15.1
2017-08-10T06:28:29.735Z,15.1
2017-08-10T06:29:28.804Z,15.1
2017-08-10T06:30:27.992Z,15.2
2017-08-10T06:31:27.171Z,15.2
2017-08-10T06:32:26.873Z,15.2
2017-08-10T06:33:26.059Z,15.1
2017-08-10T06:34:25.132Z,15.1
2017-08-10T06:36:23.703Z,15.1
2017-08-10T06:36:54.085Z,15.1
2017-08-10T06:37:24.479Z,15.1
2017-08-10T06:37:54.998Z,15.1
2017-08-10T06:39:21.250Z,15
2017-08-10T06:40:20.705Z,15
2017-08-10T06:41:19.773Z,15
2017-08-10T06:42:19.345Z,15.1
2017-08-10T06:43:18.413Z,15.1
2017-08-10T06:44:17.627Z,15.1
2017-08-10T06:45:17.310Z,15.1
2017-08-10T06:46:16.380Z,15
2017-08-10T06:47:15.334Z,15.1
2017-08-10T06:49:14.309Z,15.1
2017-08-10T06:50:13.491Z,15
2017-08-10T06:51:12.417Z,15.1
2017-08-10T06:53:11.253Z,15
2017-08-10T06:54:10.183Z,15
2017-08-10T06:55:09.753Z,15
2017-08-10T06:55:40.004Z,15
2017-08-10T06:56:10.508Z,15
2017-08-10T06:56:40.889Z,15
2017-08-10T06:57:11.291Z,15
2017-08-10T06:58:07.333Z,15
2017-08-10T06:59:07.051Z,15
2017-08-10T07:00:06.000Z,15.1
2017-08-10T07:01:05.455Z,15
2017-08-10T07:02:04.652Z,15.1
2017-08-10T07:03:03.844Z,14.9
2017-08-10T07:04:03.012Z,14.9
2017-08-10T07:05:02.079Z,15
2017-08-10T07:05:32.571Z,15
2017-08-10T07:06:02.939Z,14.8
2017-08-10T07:06:33.436Z,14.8
2017-08-10T07:07:03.819Z,14.8
2017-08-10T07:07:34.077Z,14.8
2017-08-10T07:08:04.575Z,14.8
2017-08-10T07:08:34.729Z,14.8
2017-08-10T07:09:05.730Z,14.9
2017-08-10T07:09:36.223Z,14.9
2017-08-10T07:10:57.807Z,14.9
2017-08-10T07:11:56.857Z,15
2017-08-10T07:12:56.558Z,15
2017-08-10T07:13:55.748Z,15
2017-08-10T07:14:54.940Z,14.9
2017-08-10T07:15:54.008Z,14.9
2017-08-10T07:16:53.703Z,14.9
2017-08-10T07:17:52.781Z,15
2017-08-10T07:18:51.835Z,15.1
2017-08-10T07:19:51.446Z,15.1
2017-08-10T07:20:50.394Z,15.1
2017-08-10T07:21:50.074Z,15.1
2017-08-10T07:22:49.278Z,15.1
2017-08-10T07:23:48.345Z,15
2017-08-10T07:24:47.538Z,15.1
2017-08-10T07:25:46.721Z,15.1
2017-08-10T07:26:46.409Z,15.2
2017-08-10T07:27:45.473Z,15.1
2017-08-10T07:28:44.669Z,15.1
2017-08-10T07:29:44.122Z,15.2
2017-08-10T07:30:43.194Z,15.1
2017-08-10T07:31:42.386Z,15.1
2017-08-10T07:32:41.578Z,15.1
2017-08-10T07:33:41.300Z,15.1
2017-08-10T07:34:40.353Z,15.1
2017-08-10T07:35:39.416Z,15.1
2017-08-10T07:36:38.988Z,15.1
2017-08-10T07:37:38.190Z,15.1
2017-08-10T07:38:37.383Z,15.2
2017-08-10T07:39:36.439Z,15.2
2017-08-10T07:40:36.012Z,15.3
2017-08-10T07:41:35.081Z,15.3
2017-08-10T07:42:34.266Z,15.3
2017-08-10T07:43:33.829Z,15.4
2017-08-10T07:44:33.030Z,15.4
2017-08-10T07:45:31.972Z,15.3
2017-08-10T07:46:31.543Z,15.4
2017-08-10T07:47:30.612Z,15.4
2017-08-10T07:48:01.007Z,15.4
2017-08-10T07:48:31.511Z,15.4
2017-08-10T07:49:02.008Z,15.4
2017-08-10T07:50:28.257Z,15.5
2017-08-10T07:51:27.950Z,15.5
2017-08-10T07:52:26.901Z,15.5
2017-08-10T07:53:26.474Z,15.5
2017-08-10T07:54:25.665Z,15.5
2017-08-10T07:55:24.649Z,15.5
2017-08-10T07:56:23.986Z,15.5
2017-08-10T07:57:23.675Z,15.5
2017-08-10T07:58:22.861Z,15.6
2017-08-10T07:58:53.240Z,15.6
2017-08-10T07:59:23.619Z,15.6
2017-08-10T08:00:21.042Z,15.6
2017-08-10T08:01:20.616Z,15.5
2017-08-10T08:02:19.804Z,15.5
2017-08-10T08:03:18.988Z,15.4
2017-08-10T08:03:49.371Z,15.4
2017-08-10T08:05:17.750Z,15.4
2017-08-10T08:06:16.939Z,15.4
2017-08-10T08:07:16.005Z,15.4
2017-08-10T08:08:15.199Z,15.5
2017-08-10T08:09:14.637Z,15.3
2017-08-10T08:10:13.701Z,15.4
2017-08-10T08:11:13.397Z,15.5
2017-08-10T08:12:12.453Z,15.5
2017-08-10T08:13:11.515Z,15.5
2017-08-10T08:14:11.076Z,15.5
2017-08-10T08:15:10.137Z,15.5
2017-08-10T08:16:09.096Z,15.5
2017-08-10T08:17:08.672Z,15.5
2017-08-10T08:18:07.744Z,15.4
2017-08-10T08:19:07.432Z,15.4
2017-08-10T08:20:06.614Z,15.4
2017-08-10T08:21:05.561Z,15.3
2017-08-10T08:22:05.144Z,15.3
2017-08-10T08:23:04.096Z,15.3
2017-08-10T08:24:03.665Z,15.4
2017-08-10T08:25:02.839Z,15.4
2017-08-10T08:26:02.404Z,15.3
2017-08-10T08:27:01.456Z,15.4
2017-08-10T08:28:00.413Z,15.4
2017-08-10T08:28:59.751Z,15.4
2017-08-10T08:29:59.446Z,15.3
2017-08-10T08:30:58.383Z,15.3
2017-08-10T08:31:58.069Z,15.3
2017-08-10T08:32:57.262Z,15.3
2017-08-10T08:33:56.329Z,15.4
2017-08-10T08:34:55.506Z,15.3
2017-08-10T08:35:55.180Z,15.3
2017-08-10T08:36:54.360Z,15.3
2017-08-10T08:37:53.298Z,15.4
2017-08-10T08:38:52.859Z,15.4
2017-08-10T08:39:52.053Z,15.4
2017-08-10T08:40:51.229Z,15.5
2017-08-10T08:41:50.293Z,15.5
2017-08-10T08:42:49.862Z,15.5
2017-08-10T08:43:48.921Z,15.5
2017-08-10T08:44:48.605Z,15.5
2017-08-10T08:45:47.773Z,15.5
2017-08-10T08:46:46.999Z,15.5
2017-08-10T08:48:45.569Z,15.5
2017-08-10T08:49:44.647Z,15.6
2017-08-10T08:50:43.816Z,15.6
2017-08-10T08:51:43.510Z,15.6
2017-08-10T08:52:42.560Z,15.7
2017-08-10T08:53:12.706Z,15.7
2017-08-10T08:53:43.189Z,15.7
2017-08-10T08:54:13.569Z,15.7
2017-08-10T08:54:44.069Z,15.8
2017-08-10T08:55:14.436Z,15.8
2017-08-10T08:55:44.810Z,15.8
2017-08-10T08:56:15.075Z,15.8
2017-08-10T08:56:45.457Z,15.8
2017-08-10T08:57:15.837Z,15.8
2017-08-10T08:58:38.173Z,15.8
2017-08-10T08:59:37.366Z,15.8
2017-08-10T09:00:36.811Z,15.8
2017-08-10T09:01:36.269Z,15.8
2017-08-10T09:02:35.468Z,15.8
2017-08-10T09:03:34.643Z,15.8
2017-08-10T09:04:33.842Z,15.8
2017-08-10T09:05:33.021Z,15.8
2017-08-10T09:06:32.703Z,15.8
2017-08-10T09:07:31.765Z,15.8
2017-08-10T09:08:30.857Z,15.7
2017-08-10T09:09:30.305Z,15.7
2017-08-10T09:10:29.256Z,15.7
2017-08-10T09:11:28.947Z,15.8
2017-08-10T09:12:27.772Z,15.8
2017-08-10T09:13:27.332Z,15.9
2017-08-10T09:14:27.019Z,15.9
2017-08-10T09:15:26.204Z,15.9
2017-08-10T09:16:25.382Z,16
2017-08-10T09:17:24.450Z,15.9
2017-08-10T09:18:24.023Z,15.9
2017-08-10T09:19:23.203Z,15.8
2017-08-10T09:20:22.400Z,15.8
2017-08-10T09:21:21.849Z,15.8
2017-08-10T09:22:20.796Z,15.8
2017-08-10T09:23:20.375Z,15.8
2017-08-10T09:24:19.431Z,15.9
2017-08-10T09:25:19.123Z,15.9
2017-08-10T09:26:18.304Z,15.8
2017-08-10T09:27:17.387Z,15.9
2017-08-10T09:28:16.349Z,15.9
2017-08-10T09:29:15.904Z,15.8
2017-08-10T09:30:15.236Z,15.9
2017-08-10T09:31:14.418Z,15.8
2017-08-10T09:32:13.871Z,15.9
2017-08-10T09:33:13.046Z,16
2017-08-10T09:34:12.256Z,16
2017-08-10T09:34:42.737Z,16
2017-08-10T09:35:12.989Z,16
2017-08-10T09:35:43.508Z,16
2017-08-10T09:37:10.260Z,16
2017-08-10T09:38:09.447Z,16
2017-08-10T09:39:09.010Z,16
2017-08-10T09:40:08.199Z,15.9
2017-08-10T09:41:07.270Z,16
2017-08-10T09:42:06.870Z,16
2017-08-10T09:43:05.944Z,16
2017-08-10T09:44:05.652Z,16
2017-08-10T09:45:04.602Z,16
2017-08-10T09:46:03.992Z,16
2017-08-10T09:46:33.982Z,16
2017-08-10T09:47:04.478Z,16
2017-08-10T09:47:34.740Z,16
2017-08-10T09:48:05.625Z,16.1
2017-08-10T09:49:01.672Z,16.1
2017-08-10T09:50:01.142Z,16.1
2017-08-10T09:51:00.328Z,16.1
2017-08-10T09:51:59.514Z,16.1
2017-08-10T09:52:59.197Z,16.1
2017-08-10T09:53:58.264Z,16.1
2017-08-10T09:54:57.338Z,16.2
2017-08-10T09:55:57.030Z,16.2
2017-08-10T09:56:56.093Z,16.1
2017-08-10T09:57:55.162Z,16.2
2017-08-10T09:58:54.842Z,16.2
2017-08-10T09:59:53.663Z,16.2
2017-08-10T10:00:53.376Z,16.2
2017-08-10T10:01:52.818Z,16.3
2017-08-10T10:02:51.901Z,16.3
2017-08-10T10:03:50.844Z,16.3
2017-08-10T10:04:50.531Z,16.3
2017-08-10T10:05:49.714Z,16.3
2017-08-10T10:06:49.295Z,16.3
2017-08-10T10:07:19.676Z,16.3
2017-08-10T10:07:50.047Z,16.3
2017-08-10T10:08:47.605Z,16.3
2017-08-10T10:09:47.318Z,16.3
2017-08-10T10:10:46.276Z,16.3
2017-08-10T10:11:45.272Z,16.3
2017-08-10T10:12:44.828Z,16.3
2017-08-10T10:13:44.401Z,16.3
2017-08-10T10:14:43.344Z,16.3
2017-08-10T10:15:43.049Z,16.3
2017-08-10T10:16:42.123Z,16.3
2017-08-10T10:17:41.319Z,16.3
2017-08-10T10:18:41.010Z,16.3
2017-08-10T10:19:40.075Z,16.2
2017-08-10T10:20:39.136Z,16.3
2017-08-10T10:21:38.729Z,16.3
2017-08-10T10:22:37.909Z,16.3
2017-08-10T10:23:36.848Z,16.3
2017-08-10T10:24:36.296Z,16.3
2017-08-10T10:25:35.987Z,16.3
2017-08-10T10:26:34.942Z,16.3
2017-08-10T10:27:34.625Z,16.3
2017-08-10T10:28:33.811Z,16.4
2017-08-10T10:29:33.007Z,16.4
2017-08-10T10:30:32.082Z,16.3
2017-08-10T10:31:31.639Z,16.4
2017-08-10T10:32:31.090Z,16.5
2017-08-10T10:33:29.914Z,16.5
2017-08-10T10:34:29.488Z,16.5
2017-08-10T10:35:28.667Z,16.5
2017-08-10T10:36:28.109Z,16.5
2017-08-10T10:37:27.286Z,16.5
2017-08-10T10:38:26.876Z,16.5
2017-08-10T10:39:26.065Z,16.6
2017-08-10T10:40:25.284Z,16.5
2017-08-10T10:41:24.871Z,16.5
2017-08-10T10:41:55.158Z,16.5
2017-08-10T10:42:25.547Z,16.5
2017-08-10T10:42:56.051Z,16.5
2017-08-10T10:43:26.427Z,16.5
2017-08-10T10:43:56.916Z,16.5
2017-08-10T10:45:21.670Z,16.5
2017-08-10T10:46:21.255Z,16.5
2017-08-10T10:47:20.319Z,16.5
2017-08-10T10:48:19.882Z,16.5
2017-08-10T10:49:18.955Z,16.5
2017-08-10T10:50:18.537Z,16.5
2017-08-10T10:51:17.494Z,16.5
2017-08-10T10:52:16.939Z,16.5
2017-08-10T10:53:16.638Z,16.5
2017-08-10T10:54:15.696Z,16.5
2017-08-10T10:56:14.018Z,16.5
2017-08-10T10:57:13.717Z,16.5
2017-08-10T10:58:12.898Z,16.5
2017-08-10T10:59:11.973Z,16.5
2017-08-10T11:00:11.658Z,16.5
2017-08-10T11:01:10.595Z,16.6
2017-08-10T11:01:40.974Z,16.6
2017-08-10T11:02:11.349Z,16.6
2017-08-10T11:02:41.743Z,16.6
2017-08-10T11:03:12.131Z,16.5
2017-08-10T11:04:08.822Z,16.6
2017-08-10T11:05:07.780Z,16.6
2017-08-10T11:06:07.472Z,16.6
2017-08-10T11:07:06.653Z,16.6
2017-08-10T11:08:05.830Z,16.7
2017-08-10T11:09:05.394Z,16.7
2017-08-10T11:10:04.344Z,16.7
2017-08-10T11:11:04.028Z,16.7
2017-08-10T11:12:03.194Z,16.8
2017-08-10T11:13:02.523Z,16.8
2017-08-10T11:14:01.596Z,16.8
2017-08-10T11:14:31.896Z,16.8
2017-08-10T11:15:02.287Z,16.8
2017-08-10T11:15:32.550Z,16.8
2017-08-10T11:16:59.691Z,16.8
2017-08-10T11:17:59.050Z,16.8
2017-08-10T11:18:58.610Z,16.8
2017-08-10T11:19:57.548Z,16.9
2017-08-10T11:20:56.877Z,16.8
2017-08-10T11:21:56.445Z,16.9
2017-08-10T11:22:55.514Z,16.9
2017-08-10T11:23:55.193Z,16.8
2017-08-10T11:24:54.141Z,16.8
2017-08-10T11:25:53.835Z,16.9
2017-08-10T11:26:53.023Z,16.9
2017-08-10T11:27:52.414Z,17
2017-08-10T11:28:51.357Z,17
2017-08-10T11:29:50.918Z,17
2017-08-10T11:30:50.103Z,17
2017-08-10T11:31:49.664Z,17
2017-08-10T11:32:48.747Z,17
2017-08-10T11:33:48.313Z,17.1
2017-08-10T11:34:47.438Z,17
2017-08-10T11:35:47.031Z,17
2017-08-10T11:36:17.521Z,17
2017-08-10T11:36:47.781Z,17
2017-08-10T11:37:45.212Z,17
2017-08-10T11:38:44.888Z,17
2017-08-10T11:39:44.325Z,17.1
2017-08-10T11:40:43.394Z,17.1
2017-08-10T11:41:43.101Z,17.1
2017-08-10T11:42:42.059Z,17.1
2017-08-10T11:43:41.630Z,17.1
2017-08-10T11:44:40.871Z,17.1
2017-08-10T11:45:40.168Z,17.2
2017-08-10T11:46:39.625Z,17.3
2017-08-10T11:47:38.688Z,17.3
2017-08-10T11:48:38.369Z,17.3
2017-08-10T11:49:37.310Z,17.3
2017-08-10T11:50:37.004Z,17.3
2017-08-10T11:51:36.071Z,17.3
2017-08-10T11:52:35.271Z,17.3
2017-08-10T11:53:34.955Z,17.4
2017-08-10T11:54:34.140Z,17.4
2017-08-10T11:55:04.416Z,17.4
2017-08-10T11:55:34.565Z,17.5
2017-08-10T11:56:04.981Z,17.5
2017-08-10T11:56:35.362Z,17.4
2017-08-10T11:57:31.926Z,17.5
2017-08-10T11:58:31.234Z,17.5
2017-08-10T11:59:30.712Z,17.5
2017-08-10T12:00:29.899Z,17.5
2017-08-10T12:01:29.583Z,17.5
2017-08-10T12:02:28.653Z,17.5
2017-08-10T12:03:27.844Z,17.4
2017-08-10T12:04:27.174Z,17.4
2017-08-10T12:05:26.755Z,17.4
2017-08-10T12:06:25.825Z,17.4
2017-08-10T12:07:25.509Z,17.4
2017-08-10T12:08:24.595Z,17.4
2017-08-10T12:09:24.159Z,17.5
2017-08-10T12:10:23.231Z,17.4
2017-08-10T12:10:53.492Z,17.4
2017-08-10T12:11:24.054Z,17.5
2017-08-10T12:12:21.987Z,17.5
2017-08-10T12:13:21.442Z,17.5
2017-08-10T12:14:20.896Z,17.6
2017-08-10T12:15:20.081Z,17.6
2017-08-10T12:16:19.270Z,17.6
2017-08-10T12:17:18.711Z,17.7
2017-08-10T12:18:17.990Z,17.7
2017-08-10T12:19:17.675Z,17.7
2017-08-10T12:20:16.868Z,17.7
2017-08-10T12:21:16.061Z,17.6
2017-08-10T12:22:15.510Z,17.7
2017-08-10T12:23:14.973Z,17.8
2017-08-10T12:24:14.161Z,17.8
2017-08-10T12:25:13.594Z,17.9
2017-08-10T12:26:12.654Z,17.9
2017-08-10T12:27:12.110Z,17.9
2017-08-10T12:28:11.795Z,17.8
2017-08-10T12:29:10.869Z,17.9
2017-08-10T12:30:10.460Z,17.8
2017-08-10T12:31:09.524Z,17.9
2017-08-10T12:31:40.025Z,17.9
2017-08-10T12:32:10.392Z,18
2017-08-10T12:32:40.770Z,18
2017-08-10T12:34:07.632Z,17.9
2017-08-10T12:36:06.476Z,17.9
2017-08-10T12:37:06.040Z,18
2017-08-10T12:38:05.111Z,18
2017-08-10T12:39:04.573Z,18.1
2017-08-10T12:40:03.411Z,18.3
2017-08-10T12:41:03.475Z,18.4
2017-08-10T12:43:01.937Z,18.6
2017-08-10T12:44:01.001Z,18.6
2017-08-10T12:45:59.963Z,18.5
2017-08-10T12:46:59.298Z,18.5
2017-08-10T12:47:58.873Z,18.6